Time;durP1;ratioP1;P1;durP2;ratioP2;P2;SDS_P1;SDS_P2;PMS_P1;PMS_P2;Temp;Humidity;BMP_temperature;BMP_pressure;BME280_temperature;BME280_humidity;BME280_pressure;Samples;Min_cycle;Max_cycle;Signal;HPM_P1;HPM_P2
2022/09/10 00:01:05;;;;;;;20.30;11.35;;;12.40;99.90;;;;;;4996268;28;20026;-85
2022/09/10 00:03:31;;;;;;;15.57;10.88;;;12.40;99.90;;;;;;4994670;28;20031;-86
2022/09/10 00:05:56;;;;;;;27.27;11.93;;;12.40;99.90;;;;;;4994768;28;20026;-86
2022/09/10 00:08:22;;;;;;;14.55;9.80;;;12.40;99.90;;;;;;5003594;28;20030;-85
2022/09/10 00:10:51;;;;;;;15.57;9.95;;;12.40;99.90;;;;;;4995725;28;20109;-85
2022/09/10 00:13:19;;;;;;;22.13;11.88;;;12.30;99.90;;;;;;4988549;28;20030;-85
2022/09/10 00:15:48;;;;;;;21.77;10.38;;;12.30;99.90;;;;;;4994505;28;20386;-86
2022/09/10 00:18:15;;;;;;;13.30;9.57;;;12.30;99.90;;;;;;4994394;28;20026;-86
2022/09/10 00:20:50;;;;;;;17.35;10.27;;;12.20;99.90;;;;;;4994345;28;20437;-85
2022/09/10 00:23:18;;;;;;;17.40;8.93;;;12.20;99.90;;;;;;4989123;28;20030;-85
2022/09/10 00:25:45;;;;;;;16.08;9.43;;;12.00;99.90;;;;;;4994192;28;20061;-86
2022/09/10 00:28:10;;;;;;;21.27;8.32;;;12.00;99.90;;;;;;4994505;28;20030;-85
2022/09/10 00:30:45;;;;;;;12.07;7.95;;;12.00;99.90;;;;;;4994646;28;20041;-86
2022/09/10 00:33:12;;;;;;;17.58;8.82;;;11.90;99.90;;;;;;4994540;28;20037;-86
2022/09/10 00:35:39;;;;;;;18.08;9.63;;;11.90;99.90;;;;;;4994254;28;20034;-85
2022/09/10 00:38:05;;;;;;;13.35;8.70;;;11.80;99.90;;;;;;4994184;28;20026;-86
2022/09/10 00:40:32;;;;;;;16.80;7.60;;;11.80;99.90;;;;;;4993979;28;20022;-85
2022/09/10 00:42:57;;;;;;;18.73;7.55;;;11.70;99.90;;;;;;4993581;28;20061;-85
2022/09/10 00:45:28;;;;;;;16.45;6.57;;;11.70;99.90;;;;;;4985908;28;20070;-85
2022/09/10 00:48:04;;;;;;;18.27;6.47;;;11.80;99.90;;;;;;4996586;28;20046;-85
2022/09/10 00:50:34;;;;;;;13.45;6.38;;;11.80;99.90;;;;;;4995387;28;20125;-85
2022/09/10 00:53:05;;;;;;;16.50;7.30;;;11.90;99.90;;;;;;4994126;28;20031;-85
2022/09/10 00:55:34;;;;;;;13.15;6.30;;;11.80;99.90;;;;;;4998767;28;20129;-85
2022/09/10 00:58:03;;;;;;;15.40;6.70;;;11.90;99.90;;;;;;4994091;28;20066;-85
2022/09/10 01:00:30;;;;;;;20.85;6.53;;;11.90;99.90;;;;;;4990854;28;20093;-85
2022/09/10 01:02:58;;;;;;;9.85;5.78;;;11.90;99.90;;;;;;4992647;28;20026;-85
2022/09/10 01:05:24;;;;;;;10.90;5.70;;;11.90;99.90;;;;;;4993609;28;20124;-86
2022/09/10 01:07:51;;;;;;;8.38;5.00;;;11.90;99.90;;;;;;4993435;28;20083;-85
2022/09/10 01:10:26;;;;;;;12.30;5.43;;;11.90;99.90;;;;;;4993553;28;20037;-85
2022/09/10 01:12:55;;;;;;;15.00;5.63;;;11.90;99.90;;;;;;4993721;28;20046;-85
2022/09/10 01:15:34;;;;;;;10.63;5.20;;;11.90;99.90;;;;;;4994422;28;20037;-86
2022/09/10 01:18:12;;;;;;;12.93;5.22;;;12.00;99.90;;;;;;4993285;28;20893;-85
2022/09/10 01:20:50;;;;;;;14.27;5.63;;;12.00;99.90;;;;;;4990012;28;20157;-85
2022/09/10 01:23:38;;;;;;;13.52;5.18;;;12.00;99.90;;;;;;4982545;28;20050;-85
2022/09/10 01:26:25;;;;;;;9.98;4.75;;;12.00;99.90;;;;;;4992786;28;20023;-85
2022/09/10 01:29:18;;;;;;;9.57;4.57;;;12.00;99.90;;;;;;4975201;28;20037;-85
2022/09/10 01:32:14;;;;;;;8.25;3.88;;;12.10;99.90;;;;;;4993522;28;20042;-85
2022/09/10 01:35:01;;;;;;;14.05;4.97;;;12.20;99.90;;;;;;4990195;28;20031;-85
2022/09/10 01:37:32;;;;;;;11.23;4.28;;;12.20;99.90;;;;;;4996928;28;20037;-85
2022/09/10 01:40:00;;;;;;;7.30;4.32;;;12.20;99.90;;;;;;4993152;28;20026;-85
2022/09/10 01:42:30;;;;;;;8.57;5.68;;;12.30;99.90;;;;;;4993095;28;20034;-85
2022/09/10 01:44:56;;;;;;;13.95;5.13;;;12.30;99.90;;;;;;4992889;28;20113;-85
2022/09/10 01:47:44;;;;;;;8.20;4.60;;;12.40;99.90;;;;;;4993201;28;20037;-85
2022/09/10 01:50:31;;;;;;;9.18;4.68;;;12.30;99.90;;;;;;4976547;28;20034;-85
2022/09/10 01:53:21;;;;;;;10.60;4.93;;;12.30;99.90;;;;;;4993965;28;20121;-84
2022/09/10 01:56:11;;;;;;;7.32;4.82;;;12.40;99.90;;;;;;4974289;28;20034;-84
2022/09/10 01:58:41;;;;;;;9.07;4.72;;;12.40;99.90;;;;;;4990342;28;20097;-86
2022/09/10 02:01:44;;;;;;;9.48;4.60;;;12.30;99.90;;;;;;4989408;28;20034;-85
2022/09/10 02:04:13;;;;;;;6.30;4.10;;;12.40;99.90;;;;;;4971591;28;20496;-85
2022/09/10 02:06:43;;;;;;;9.90;4.13;;;12.40;99.90;;;;;;4992500;28;20497;-85
2022/09/10 02:09:12;;;;;;;6.40;4.93;;;12.40;99.90;;;;;;4988153;28;20026;-85
2022/09/10 02:12:04;;;;;;;10.18;5.22;;;12.40;99.90;;;;;;5000022;28;20045;-85
2022/09/10 02:14:57;;;;;;;7.63;6.18;;;12.40;99.90;;;;;;4961926;28;20027;-85
2022/09/10 02:17:48;;;;;;;11.77;7.40;;;12.40;99.90;;;;;;4997553;28;20026;-84
2022/09/10 02:20:15;;;;;;;11.73;8.27;;;12.40;99.90;;;;;;4992502;28;20117;-85
2022/09/10 02:22:50;;;;;;;14.38;9.20;;;12.30;99.90;;;;;;4988802;28;20109;-85
2022/09/10 02:25:17;;;;;;;17.08;10.90;;;12.30;99.90;;;;;;4992426;28;20030;-85
2022/09/10 02:27:43;;;;;;;14.02;9.77;;;12.30;99.90;;;;;;4991535;28;20030;-85
2022/09/10 02:30:10;;;;;;;15.00;9.00;;;12.30;99.90;;;;;;4992473;28;20100;-85
2022/09/10 02:32:36;;;;;;;14.18;7.18;;;12.30;99.90;;;;;;4991950;28;20733;-85
2022/09/10 02:35:02;;;;;;;6.70;6.10;;;12.30;99.90;;;;;;4992056;28;20033;-85
2022/09/10 02:37:28;;;;;;;7.78;5.85;;;12.30;99.90;;;;;;4992362;28;20117;-85
2022/09/10 02:39:54;;;;;;;9.20;5.68;;;12.30;99.90;;;;;;4992318;28;20114;-85
2022/09/10 02:42:21;;;;;;;16.38;8.75;;;12.30;99.90;;;;;;4992279;28;20023;-85
2022/09/10 02:44:48;;;;;;;9.85;8.02;;;12.30;99.90;;;;;;4996977;28;20482;-85
2022/09/10 02:47:15;;;;;;;14.48;9.35;;;12.30;99.90;;;;;;4992050;28;20481;-85
2022/09/10 02:49:41;;;;;;;13.15;10.05;;;12.30;99.90;;;;;;4991889;28;20093;-85
2022/09/10 02:52:07;;;;;;;11.55;9.80;;;12.30;99.90;;;;;;4985232;28;20030;-85
2022/09/10 02:54:34;;;;;;;14.40;10.13;;;12.30;99.90;;;;;;4991703;28;20034;-85
2022/09/10 02:57:00;;;;;;;14.80;10.85;;;12.30;99.90;;;;;;5005377;28;20035;-85
2022/09/10 02:59:26;;;;;;;14.50;10.98;;;12.30;99.90;;;;;;4988258;28;20022;-85
2022/09/10 03:01:53;;;;;;;18.90;11.43;;;12.30;99.90;;;;;;4996907;28;20037;-85
2022/09/10 03:04:19;;;;;;;18.58;11.52;;;12.30;99.90;;;;;;4983462;28;20386;-85
2022/09/10 03:06:48;;;;;;;15.05;11.20;;;12.30;99.90;;;;;;4996422;28;20022;-86
2022/09/10 03:09:14;;;;;;;17.05;10.70;;;12.30;99.90;;;;;;4996064;28;20541;-85
2022/09/10 03:11:40;;;;;;;10.63;9.38;;;12.30;99.90;;;;;;5000890;28;20041;-84
2022/09/10 03:14:09;;;;;;;15.38;8.80;;;12.20;99.90;;;;;;4995572;28;20048;-85
2022/09/10 03:16:35;;;;;;;18.02;8.50;;;12.30;99.90;;;;;;4996209;28;20052;-85
2022/09/10 03:19:02;;;;;;;12.10;7.82;;;12.30;99.90;;;;;;5007766;28;20434;-85
2022/09/10 03:21:29;;;;;;;14.00;9.02;;;12.30;99.90;;;;;;4995907;28;20050;-85
2022/09/10 03:23:56;;;;;;;12.88;9.10;;;12.30;99.90;;;;;;4995372;28;20030;-85
2022/09/10 03:26:25;;;;;;;15.40;9.45;;;12.30;99.90;;;;;;4997040;28;20061;-84
2022/09/10 03:28:51;;;;;;;20.80;9.23;;;12.30;99.90;;;;;;4995249;28;20037;-85
2022/09/10 03:31:19;;;;;;;15.18;8.73;;;12.30;99.90;;;;;;4995183;28;20121;-84
2022/09/10 03:33:48;;;;;;;14.05;9.13;;;12.30;99.90;;;;;;4994480;28;20031;-85
2022/09/10 03:36:14;;;;;;;13.32;11.02;;;12.30;99.90;;;;;;4994809;28;20084;-84
2022/09/10 03:38:42;;;;;;;11.75;9.75;;;12.30;99.90;;;;;;4994003;28;20030;-85
2022/09/10 03:41:08;;;;;;;19.27;9.93;;;12.30;99.90;;;;;;4995251;28;20113;-84
2022/09/10 03:43:33;;;;;;;16.73;10.95;;;12.30;99.90;;;;;;4995226;28;20080;-84
2022/09/10 03:46:05;;;;;;;15.68;10.15;;;12.30;99.90;;;;;;4995329;28;20026;-84
2022/09/10 03:48:33;;;;;;;16.13;11.45;;;12.30;99.90;;;;;;4996899;28;20037;-85
2022/09/10 03:51:00;;;;;;;12.85;10.77;;;12.30;99.90;;;;;;4979090;28;20022;-85
2022/09/10 03:53:27;;;;;;;13.70;9.73;;;12.30;99.90;;;;;;4978503;28;20034;-84
2022/09/10 03:55:54;;;;;;;10.43;9.32;;;12.30;99.90;;;;;;4977948;28;20040;-84
2022/09/10 03:58:20;;;;;;;14.60;9.13;;;12.30;99.90;;;;;;5011350;28;20181;-85
2022/09/10 04:00:46;;;;;;;11.85;9.20;;;12.30;99.90;;;;;;4994920;28;20069;-85
2022/09/10 04:03:13;;;;;;;13.07;8.63;;;12.30;99.90;;;;;;4994947;28;20025;-85
2022/09/10 04:05:44;;;;;;;16.95;9.40;;;12.40;99.90;;;;;;4997134;28;20382;-84
2022/09/10 04:08:11;;;;;;;12.45;10.13;;;12.30;99.90;;;;;;4994673;28;20026;-84
2022/09/10 04:10:38;;;;;;;12.68;10.23;;;12.30;99.90;;;;;;4994288;28;20485;-85
2022/09/10 04:13:04;;;;;;;13.02;9.93;;;12.40;99.90;;;;;;4968650;28;20354;-85
2022/09/10 04:19:19;;;;;;;18.35;12.13;;;12.40;99.90;;;;;;4995908;28;20061;-84
2022/09/10 04:21:47;;;;;;;14.48;11.60;;;12.40;99.90;;;;;;4994514;28;20054;-85
2022/09/10 04:24:13;;;;;;;22.23;12.85;;;12.30;99.90;;;;;;4994480;28;20046;-86
2022/09/10 04:26:40;;;;;;;15.98;12.95;;;12.30;99.90;;;;;;4994737;28;20113;-85
2022/09/10 04:29:06;;;;;;;17.55;12.23;;;12.30;99.90;;;;;;4981995;28;20069;-85
2022/09/10 04:31:32;;;;;;;17.27;11.57;;;12.40;99.90;;;;;;4994578;28;20034;-85
2022/09/10 04:34:06;;;;;;;22.42;12.10;;;12.40;99.90;;;;;;4974220;28;20029;-85
2022/09/10 04:36:32;;;;;;;15.30;10.68;;;12.30;99.90;;;;;;4978376;28;20058;-85
2022/09/10 04:38:58;;;;;;;17.45;12.15;;;12.30;99.90;;;;;;4978303;28;20084;-85
2022/09/10 04:41:24;;;;;;;15.00;11.20;;;12.30;99.90;;;;;;5001994;28;20629;-84
2022/09/10 04:43:52;;;;;;;15.52;11.50;;;12.30;99.90;;;;;;4995567;28;20037;-85
2022/09/10 04:46:18;;;;;;;16.08;12.18;;;12.30;99.90;;;;;;4993513;28;20022;-85
2022/09/10 04:48:45;;;;;;;17.10;11.77;;;12.30;99.90;;;;;;4985575;28;20498;-84
2022/09/10 04:51:16;;;;;;;20.00;12.30;;;12.30;99.90;;;;;;4980564;28;20417;-84
2022/09/10 04:53:44;;;;;;;20.02;11.32;;;12.30;99.90;;;;;;4998360;28;20080;-84
2022/09/10 04:56:10;;;;;;;21.83;12.95;;;12.30;99.90;;;;;;4989282;28;20692;-84
2022/09/10 04:58:37;;;;;;;26.83;11.80;;;12.30;99.90;;;;;;4986688;28;20050;-84
2022/09/10 05:01:03;;;;;;;16.15;12.40;;;12.30;99.90;;;;;;4993499;28;20065;-85
2022/09/10 05:03:29;;;;;;;19.27;11.68;;;12.30;99.90;;;;;;4988604;28;20031;-84
2022/09/10 05:05:54;;;;;;;17.70;11.65;;;12.30;99.90;;;;;;4993456;28;20029;-84
2022/09/10 05:08:21;;;;;;;20.88;11.30;;;12.20;99.90;;;;;;4988705;28;20030;-85
2022/09/10 05:10:53;;;;;;;20.60;12.27;;;12.20;99.90;;;;;;4992698;28;20026;-84
2022/09/10 05:13:19;;;;;;;15.40;11.30;;;12.20;99.90;;;;;;4976959;28;20022;-84
2022/09/10 05:15:45;;;;;;;16.38;10.52;;;12.20;99.90;;;;;;4988884;28;20030;-85
2022/09/10 05:18:13;;;;;;;15.45;10.27;;;12.20;99.90;;;;;;4993540;28;20105;-85
2022/09/10 05:20:41;;;;;;;12.95;8.90;;;12.20;99.90;;;;;;5000196;28;20053;-85
2022/09/10 05:23:07;;;;;;;13.25;8.57;;;12.20;99.90;;;;;;4993486;28;20022;-86
2022/09/10 05:25:33;;;;;;;16.38;10.05;;;12.20;99.90;;;;;;4992557;28;20371;-86
2022/09/10 05:28:00;;;;;;;14.50;7.70;;;12.20;99.90;;;;;;4993369;28;20035;-86
2022/09/10 05:30:26;;;;;;;12.73;7.57;;;12.20;99.90;;;;;;4993887;28;20062;-87
2022/09/10 05:32:52;;;;;;;14.32;8.60;;;12.20;99.90;;;;;;4993300;28;20117;-87
2022/09/10 05:35:19;;;;;;;14.30;8.52;;;12.20;99.90;;;;;;4993471;28;20031;-86
2022/09/10 05:37:45;;;;;;;14.48;8.48;;;12.20;99.90;;;;;;4998375;28;20031;-87
2022/09/10 05:40:13;;;;;;;17.05;12.48;;;12.20;99.90;;;;;;4990080;28;20019;-86
2022/09/10 05:42:39;;;;;;;17.67;11.30;;;12.30;99.90;;;;;;4990699;28;20026;-85
2022/09/10 05:45:06;;;;;;;18.10;11.68;;;12.30;99.90;;;;;;4988857;28;20749;-85
2022/09/10 05:47:33;;;;;;;20.95;11.60;;;12.30;99.90;;;;;;4993017;28;20034;-87
2022/09/10 05:50:00;;;;;;;26.30;12.77;;;12.30;99.90;;;;;;4992994;28;20026;-87
2022/09/10 05:52:26;;;;;;;20.02;12.43;;;12.30;99.90;;;;;;4986335;28;20030;-87
2022/09/10 05:54:58;;;;;;;22.02;11.52;;;12.30;99.90;;;;;;4975811;28;20033;-87
2022/09/10 05:57:25;;;;;;;20.60;10.85;;;12.30;99.90;;;;;;4991463;28;20034;-87
2022/09/10 05:59:51;;;;;;;18.80;11.43;;;12.30;99.90;;;;;;4980397;28;20023;-87
2022/09/10 06:02:17;;;;;;;19.08;11.45;;;12.30;99.90;;;;;;4990208;28;20113;-87
2022/09/10 06:04:44;;;;;;;16.85;11.95;;;12.30;99.90;;;;;;4984604;28;20422;-87
2022/09/10 06:07:10;;;;;;;19.98;11.48;;;12.30;99.90;;;;;;4984776;28;20033;-87
2022/09/10 06:09:36;;;;;;;27.15;12.68;;;12.30;99.90;;;;;;4992323;28;20030;-87
2022/09/10 06:12:15;;;;;;;14.18;10.90;;;12.40;99.90;;;;;;4992904;28;20058;-87
2022/09/10 06:14:41;;;;;;;18.45;10.35;;;12.30;99.90;;;;;;4992448;28;20061;-87
2022/09/10 06:17:07;;;;;;;15.23;10.15;;;12.30;99.90;;;;;;4997895;28;20446;-87
2022/09/10 06:19:33;;;;;;;14.90;10.07;;;12.30;99.90;;;;;;4995442;28;20026;-88
2022/09/10 06:21:59;;;;;;;17.92;10.52;;;12.30;99.90;;;;;;4994837;28;20036;-86
2022/09/10 06:24:26;;;;;;;21.60;11.15;;;12.20;99.90;;;;;;4995816;28;20474;-87
2022/09/10 06:26:56;;;;;;;19.40;11.18;;;12.30;99.90;;;;;;4966156;28;20027;-86
2022/09/10 06:29:23;;;;;;;16.13;10.98;;;12.30;99.90;;;;;;4978534;28;20038;-87
2022/09/10 06:31:50;;;;;;;17.52;11.43;;;12.30;99.90;;;;;;4990156;28;20065;-87
2022/09/10 06:34:17;;;;;;;19.42;11.40;;;12.40;99.90;;;;;;4989956;28;20027;-87
2022/09/10 06:36:45;;;;;;;15.95;11.55;;;12.30;99.90;;;;;;4984539;28;20113;-87
2022/09/10 06:39:11;;;;;;;20.23;11.65;;;12.30;99.90;;;;;;4980093;28;20469;-87
2022/09/10 06:41:45;;;;;;;22.02;12.77;;;12.40;99.90;;;;;;4989952;28;20121;-87
2022/09/10 06:44:28;;;;;;;15.38;11.43;;;12.40;99.90;;;;;;4991702;28;20088;-87
2022/09/10 06:47:03;;;;;;;18.60;10.95;;;12.40;99.90;;;;;;4991808;28;20026;-87
2022/09/10 06:49:30;;;;;;;16.65;10.52;;;12.40;99.90;;;;;;4993081;28;20034;-87
2022/09/10 06:51:56;;;;;;;17.08;12.05;;;12.40;99.90;;;;;;4990720;28;20023;-88
2022/09/10 06:54:23;;;;;;;18.35;11.75;;;12.40;99.90;;;;;;4988643;28;20122;-86
2022/09/10 06:56:49;;;;;;;21.00;11.23;;;12.40;99.90;;;;;;4993028;28;20022;-87
2022/09/10 06:59:17;;;;;;;20.83;12.18;;;12.40;99.90;;;;;;4978190;28;20560;-85
2022/09/10 07:01:46;;;;;;;18.38;12.43;;;12.40;99.90;;;;;;4987267;28;20046;-86
2022/09/10 07:04:13;;;;;;;24.15;11.80;;;12.40;99.90;;;;;;4988187;28;20033;-87
2022/09/10 07:06:40;;;;;;;16.90;11.40;;;12.30;99.90;;;;;;4988035;28;20039;-87
2022/09/10 07:09:14;;;;;;;16.08;10.55;;;12.40;99.90;;;;;;4970207;28;20386;-86
2022/09/10 07:11:58;;;;;;;15.18;10.43;;;12.40;99.90;;;;;;4995367;28;20039;-87
2022/09/10 07:14:24;;;;;;;18.98;11.27;;;12.40;99.90;;;;;;4977952;28;20065;-87
2022/09/10 07:16:52;;;;;;;23.70;11.60;;;12.40;99.90;;;;;;4977122;28;20049;-86
2022/09/10 07:19:19;;;;;;;17.02;11.15;;;12.30;99.90;;;;;;4978252;28;20556;-86
2022/09/10 07:21:46;;;;;;;17.52;11.52;;;12.40;99.90;;;;;;4974645;28;20034;-87
2022/09/10 07:24:14;;;;;;;18.52;11.73;;;12.40;99.90;;;;;;4977200;28;20575;-87
2022/09/10 07:26:47;;;;;;;24.42;11.75;;;12.40;99.90;;;;;;4975812;28;20030;-87
2022/09/10 07:29:12;;;;;;;20.17;12.50;;;12.40;99.90;;;;;;4972871;28;20117;-87
2022/09/10 07:31:40;;;;;;;20.23;13.95;;;12.40;99.90;;;;;;4994567;28;20037;-86
2022/09/10 07:34:10;;;;;;;32.38;15.68;;;12.40;99.90;;;;;;4977800;28;20033;-86
2022/09/10 07:36:36;;;;;;;23.02;16.38;;;12.40;99.90;;;;;;4996536;28;20473;-86
2022/09/10 07:39:03;;;;;;;30.80;17.73;;;12.40;99.90;;;;;;4993879;28;20469;-86
2022/09/10 07:41:33;;;;;;;31.63;15.57;;;12.40;99.90;;;;;;4999046;28;20475;-85
2022/09/10 07:44:01;;;;;;;29.33;17.58;;;12.40;99.90;;;;;;4991347;28;20050;-86
2022/09/10 07:46:33;;;;;;;25.77;17.05;;;12.40;99.90;;;;;;4976391;28;20053;-86
2022/09/10 07:49:00;;;;;;;26.90;16.83;;;12.40;99.90;;;;;;4997133;28;20035;-86
2022/09/10 07:51:29;;;;;;;32.95;16.40;;;12.40;99.90;;;;;;4982114;28;20033;-85
2022/09/10 07:53:58;;;;;;;35.13;16.88;;;12.40;99.90;;;;;;4994993;28;20068;-86
2022/09/10 07:56:31;;;;;;;31.08;16.75;;;12.40;99.90;;;;;;4991145;28;20031;-87
2022/09/10 07:58:57;;;;;;;31.00;17.83;;;12.40;99.90;;;;;;4994907;28;20050;-86
2022/09/10 08:01:26;;;;;;;32.80;16.80;;;12.50;99.90;;;;;;4989480;28;20508;-86
2022/09/10 08:03:56;;;;;;;24.10;16.20;;;12.50;99.90;;;;;;4996025;28;20070;-86
2022/09/10 08:06:22;;;;;;;31.08;15.68;;;12.60;99.90;;;;;;4992542;28;20161;-86
2022/09/10 08:08:49;;;;;;;23.25;14.48;;;12.60;99.90;;;;;;4995340;28;20037;-86
2022/09/10 08:11:17;;;;;;;24.95;13.98;;;12.60;99.90;;;;;;4980427;28;20351;-86
2022/09/10 08:13:49;;;;;;;22.75;12.32;;;12.50;99.90;;;;;;4992016;28;20023;-87
2022/09/10 08:16:23;;;;;;;20.02;10.75;;;12.50;99.90;;;;;;4981491;28;20481;-87
2022/09/10 08:18:50;;;;;;;19.90;11.43;;;12.50;99.90;;;;;;4993561;28;20037;-87
2022/09/10 08:21:17;;;;;;;22.00;11.73;;;12.50;99.90;;;;;;4995314;28;20026;-87
2022/09/10 08:23:49;;;;;;;25.08;11.32;;;12.60;99.90;;;;;;5004985;28;20030;-87
2022/09/10 08:26:17;;;;;;;21.83;9.70;;;12.60;99.90;;;;;;4999039;28;20022;-87
2022/09/10 08:28:46;;;;;;;20.77;9.77;;;12.70;99.90;;;;;;4995794;28;20030;-87
2022/09/10 08:31:13;;;;;;;24.13;11.18;;;12.80;99.90;;;;;;4994635;28;20022;-87
2022/09/10 08:33:50;;;;;;;18.02;8.93;;;12.80;99.90;;;;;;4994119;28;20038;-88
2022/09/10 08:36:17;;;;;;;19.07;9.17;;;12.90;99.90;;;;;;4994468;28;20030;-87
2022/09/10 08:38:58;;;;;;;16.90;8.77;;;13.10;99.90;;;;;;4994192;28;20266;-86
2022/09/10 08:41:39;;;;;;;19.73;8.30;;;13.20;99.90;;;;;;4994165;28;20478;-87
2022/09/10 08:44:23;;;;;;;14.23;7.07;;;13.20;99.90;;;;;;4983289;28;20030;-86
2022/09/10 08:47:08;;;;;;;15.38;7.20;;;13.20;99.90;;;;;;4976265;28;20482;-86
2022/09/10 08:49:46;;;;;;;14.18;6.82;;;13.20;99.90;;;;;;5000239;28;20045;-86
2022/09/10 08:52:47;;;;;;;15.38;7.80;;;13.20;99.90;;;;;;5003817;28;20490;-86
2022/09/10 08:55:19;;;;;;;16.80;7.68;;;13.40;99.90;;;;;;4993405;28;20057;-87
2022/09/10 08:58:10;;;;;;;15.80;6.82;;;13.30;99.90;;;;;;4993809;28;20033;-86
2022/09/10 09:00:39;;;;;;;16.75;6.68;;;13.30;99.90;;;;;;4993687;28;20030;-86
2022/09/10 09:03:29;;;;;;;22.48;7.05;;;13.30;99.90;;;;;;4999598;28;20737;-86
2022/09/10 09:05:58;;;;;;;16.45;5.85;;;13.40;99.90;;;;;;4976190;28;20034;-87
2022/09/10 09:08:35;;;;;;;11.85;5.47;;;13.40;99.90;;;;;;4994080;28;20060;-86
2022/09/10 09:11:26;;;;;;;14.77;5.43;;;13.40;99.90;;;;;;4993314;28;20038;-86
2022/09/10 09:14:20;;;;;;;16.67;5.57;;;13.40;99.90;;;;;;4975791;28;20771;-87
2022/09/10 09:17:18;;;;;;;16.45;5.32;;;13.50;99.90;;;;;;4994290;28;20513;-87
2022/09/10 09:20:07;;;;;;;10.20;4.95;;;13.60;99.90;;;;;;4950775;28;20062;-86
2022/09/10 09:22:52;;;;;;;10.18;5.10;;;13.70;99.90;;;;;;4992812;28;20031;-86
2022/09/10 09:25:28;;;;;;;15.13;5.00;;;13.90;99.90;;;;;;4970552;28;20758;-87
2022/09/10 09:27:56;;;;;;;11.48;5.78;;;13.80;99.90;;;;;;4981868;28;20409;-87
2022/09/10 09:30:37;;;;;;;12.90;3.95;;;14.10;99.90;;;;;;5000277;28;20046;-86
2022/09/10 09:33:13;;;;;;;11.93;3.95;;;14.40;99.90;;;;;;4990192;28;20090;-87
2022/09/10 09:36:01;;;;;;;7.68;4.32;;;14.70;99.90;;;;;;5002923;28;20474;-87
2022/09/10 09:38:33;;;;;;;11.73;3.50;;;15.00;99.90;;;;;;4992133;28;20026;-88
2022/09/10 09:41:06;;;;;;;11.20;3.20;;;15.10;99.90;;;;;;4976836;28;20037;-88
2022/09/10 09:43:39;;;;;;;10.88;3.17;;;15.70;99.90;;;;;;4975639;28;20081;-87
2022/09/10 09:46:18;;;;;;;6.28;3.00;;;16.00;99.90;;;;;;4988147;28;20353;-87
2022/09/10 09:48:47;;;;;;;12.70;3.00;;;16.20;99.90;;;;;;4997500;28;20022;-88
2022/09/10 09:51:21;;;;;;;10.60;3.45;;;15.90;99.90;;;;;;4992102;28;20023;-87
2022/09/10 09:53:49;;;;;;;12.73;3.65;;;15.60;99.90;;;;;;4992247;28;20036;-87
2022/09/10 09:56:44;;;;;;;7.30;3.10;;;15.30;99.90;;;;;;4992861;28;20040;-87
2022/09/10 09:59:31;;;;;;;13.15;4.05;;;15.10;99.90;;;;;;4967954;28;20026;-87
2022/09/10 10:02:10;;;;;;;10.38;3.67;;;14.90;99.90;;;;;;5001805;28;20038;-87
2022/09/10 10:04:36;;;;;;;9.55;3.70;;;14.90;99.90;;;;;;4991924;28;20034;-87
2022/09/10 10:07:03;;;;;;;8.20;3.17;;;15.10;99.90;;;;;;4975827;28;20042;-86
2022/09/10 10:09:42;;;;;;;11.65;3.15;;;14.90;99.90;;;;;;4975910;28;20100;-87
2022/09/10 10:12:18;;;;;;;13.77;3.53;;;15.00;99.90;;;;;;4986501;28;20045;-87
2022/09/10 10:14:44;;;;;;;8.38;3.28;;;14.80;99.90;;;;;;4991530;28;20057;-87
2022/09/10 10:17:35;;;;;;;17.60;4.50;;;14.70;99.90;;;;;;4992362;28;20046;-87
2022/09/10 10:20:08;;;;;;;10.93;3.25;;;14.60;99.90;;;;;;4987195;28;20045;-87
2022/09/10 10:22:36;;;;;;;12.85;3.03;;;14.60;99.90;;;;;;4992354;28;20121;-86
2022/09/10 10:25:04;;;;;;;10.57;3.20;;;15.00;99.90;;;;;;4975069;28;20764;-87
2022/09/10 10:28:16;;;;;;;8.07;2.60;;;15.70;99.90;;;;;;4992165;28;20034;-87
2022/09/10 10:30:43;;;;;;;9.05;2.78;;;16.00;99.90;;;;;;4989935;28;20038;-87
2022/09/10 10:33:18;;;;;;;5.03;2.22;;;16.40;99.90;;;;;;4988852;28;20474;-87
2022/09/10 10:36:06;;;;;;;12.38;2.30;;;16.40;99.90;;;;;;4975637;28;20406;-87
2022/09/10 10:38:41;;;;;;;7.65;2.17;;;16.10;99.90;;;;;;4992748;28;20037;-87
2022/09/10 10:41:24;;;;;;;9.88;2.50;;;16.00;99.90;;;;;;4975600;28;20089;-87
2022/09/10 10:44:02;;;;;;;9.35;2.97;;;15.70;99.90;;;;;;4988544;28;20031;-87
2022/09/10 10:46:52;;;;;;;7.38;2.38;;;15.80;99.90;;;;;;4974306;28;20697;-87
2022/09/10 10:49:36;;;;;;;7.93;2.42;;;16.20;99.90;;;;;;4965179;28;20034;-87
2022/09/10 10:52:02;;;;;;;9.00;2.25;;;16.30;99.90;;;;;;4974880;28;20026;-87
2022/09/10 10:54:53;;;;;;;6.53;2.30;;;16.10;99.90;;;;;;4987661;28;20035;-87
2022/09/10 10:57:19;;;;;;;9.15;2.10;;;16.40;99.90;;;;;;5004140;28;20026;-87
2022/09/10 11:00:00;;;;;;;7.15;2.33;;;16.90;99.90;;;;;;4981921;28;20037;-88
2022/09/10 11:03:01;;;;;;;5.75;2.00;;;16.90;99.90;;;;;;4991947;28;20528;-87
2022/09/10 11:05:30;;;;;;;10.95;2.10;;;16.60;99.90;;;;;;4987027;28;20042;-87
2022/09/10 11:08:02;;;;;;;5.78;1.98;;;16.20;99.90;;;;;;4995710;28;20053;-87
2022/09/10 11:10:53;;;;;;;8.77;2.25;;;15.90;99.90;;;;;;4989569;28;20030;-87
2022/09/10 11:13:31;;;;;;;8.48;2.40;;;15.40;99.90;;;;;;4984622;28;20030;-87
2022/09/10 11:16:08;;;;;;;11.05;3.10;;;15.40;99.90;;;;;;4997186;28;20042;-87
2022/09/10 11:18:37;;;;;;;12.27;3.08;;;15.60;99.90;;;;;;4991907;28;20130;-87
2022/09/10 11:21:03;;;;;;;9.35;2.42;;;15.80;99.90;;;;;;4991911;28;20045;-87
2022/09/10 11:23:58;;;;;;;11.48;2.45;;;15.90;99.90;;;;;;4994053;28;20038;-86
2022/09/10 11:26:28;;;;;;;8.00;2.25;;;16.10;99.90;;;;;;4995181;28;20034;-87
2022/09/10 11:29:02;;;;;;;7.65;2.58;;;16.10;99.90;;;;;;4995233;28;20490;-87
2022/09/10 11:31:31;;;;;;;11.00;3.20;;;15.90;99.90;;;;;;4982960;28;20038;-87
2022/09/10 11:34:03;;;;;;;11.63;3.40;;;15.60;99.90;;;;;;4985394;28;20029;-87
2022/09/10 11:36:54;;;;;;;8.27;3.55;;;15.60;99.90;;;;;;4992232;28;20042;-88
2022/09/10 11:39:32;;;;;;;8.65;3.35;;;15.60;99.90;;;;;;4993586;28;20037;-87
2022/09/10 11:42:02;;;;;;;10.55;2.78;;;15.40;99.90;;;;;;4973851;28;20042;-87
2022/09/10 11:44:46;;;;;;;13.13;3.65;;;15.40;99.90;;;;;;4992736;28;20093;-87
2022/09/10 11:47:21;;;;;;;7.05;3.17;;;15.40;99.90;;;;;;4988413;28;20363;-87
2022/09/10 11:49:57;;;;;;;11.27;3.65;;;15.50;99.90;;;;;;4990377;28;20054;-87
2022/09/10 11:52:24;;;;;;;9.18;3.00;;;15.50;99.90;;;;;;5001933;28;20045;-87
2022/09/10 11:54:51;;;;;;;10.57;2.88;;;15.50;99.90;;;;;;4994401;28;20061;-87
2022/09/10 11:57:47;;;;;;;6.45;2.50;;;15.50;99.90;;;;;;4993040;28;20033;-87
2022/09/10 12:00:16;;;;;;;6.93;3.30;;;15.40;99.90;;;;;;4984855;28;20031;-87
2022/09/10 12:03:25;;;;;;;12.73;2.83;;;15.00;99.90;;;;;;4978525;28;20615;-87
2022/09/10 12:06:43;;;;;;;8.43;3.65;;;14.80;99.90;;;;;;4996760;28;20030;-87
2022/09/10 12:09:45;;;;;;;9.13;3.53;;;14.70;99.90;;;;;;4952281;28;20198;-87
2022/09/10 12:12:21;;;;;;;11.95;4.30;;;14.80;99.90;;;;;;4956864;28;20037;-86
2022/09/10 12:14:47;;;;;;;14.07;5.00;;;14.70;99.90;;;;;;4986437;28;20497;-87
2022/09/10 12:17:23;;;;;;;10.90;4.43;;;14.50;99.90;;;;;;4993788;28;20054;-87
2022/09/10 12:19:53;;;;;;;10.82;3.88;;;14.50;99.90;;;;;;4988967;28;20027;-87
2022/09/10 12:22:25;;;;;;;11.90;3.67;;;14.50;99.90;;;;;;4994097;28;20026;-86
2022/09/10 12:25:10;;;;;;;;;;;14.30;99.90;;;;;;4977724;28;20057;-87
2022/09/10 12:27:48;;;;;;;7.50;3.75;;;14.10;99.90;;;;;;4992471;28;20044;-87
2022/09/10 12:30:35;;;;;;;14.90;4.97;;;14.10;99.90;;;;;;5006304;28;20041;-87
2022/09/10 12:33:21;;;;;;;12.85;4.78;;;14.10;99.90;;;;;;4993062;28;20058;-87
2022/09/10 12:35:51;;;;;;;17.27;5.00;;;14.10;99.90;;;;;;4973790;28;20116;-87
2022/09/10 12:38:45;;;;;;;14.07;5.32;;;14.10;99.90;;;;;;4994199;28;20030;-87
2022/09/10 12:41:23;;;;;;;10.07;5.32;;;14.10;99.90;;;;;;4995636;28;20023;-87
2022/09/10 12:44:03;;;;;;;10.25;4.90;;;14.10;99.90;;;;;;4976057;28;20038;-87
2022/09/10 12:46:30;;;;;;;10.32;5.00;;;14.10;99.90;;;;;;4989655;28;20537;-88
2022/09/10 12:48:56;;;;;;;18.30;5.90;;;14.20;99.90;;;;;;4991941;28;20027;-86
2022/09/10 12:51:24;;;;;;;13.55;4.57;;;14.40;99.90;;;;;;4975785;28;20033;-87
2022/09/10 12:54:03;;;;;;;22.50;6.38;;;14.70;99.90;;;;;;5003703;28;20030;-87
2022/09/10 12:57:02;;;;;;;10.68;4.40;;;14.60;99.90;;;;;;4993723;28;20034;-86
2022/09/10 12:59:50;;;;;;;15.13;4.85;;;14.70;99.90;;;;;;4988745;28;20482;-86
2022/09/10 13:02:21;;;;;;;13.30;4.03;;;14.80;99.90;;;;;;4977871;28;20045;-86
2022/09/10 13:04:58;;;;;;;15.20;4.28;;;14.90;99.90;;;;;;4992842;28;20634;-86
2022/09/10 13:07:32;;;;;;;8.90;4.07;;;14.90;99.90;;;;;;4993215;28;20552;-85